Terminal Aerodrome Forecast
Issued by NWS Dodge City, KS

Home | Current Version | Previous Version | Graphics & Text | Print | Product List | Glossary Off
Versions: 1 2 3 4 5 6 7 8 9 10 11 12 13 14 15 16 17 18 19 20 21 22 23 24 25 26 27 28 29 30 31 32 33 34 35

852
FTUS43 KDDC 302320
TAFDDC
TAF
KDDC 302320Z 3100/3124 16014G23KT P6SM BKN250
     FM310200 15010G20KT P6SM BKN250
     FM310600 16010KT P6SM VCTS OVC100CB
     FM310900 18008KT P6SM -TSRA OVC080CB
      TEMPO 3109/3113 4SM -TSRA OVC050CB
     FM311500 04010G20KT 3SM -RA OVC040=

USA.gov is the U.S. government's official web portal to all federal, state and local government web resources and services.